Time;durP1;ratioP1;P1;durP2;ratioP2;P2;SDS_P1;SDS_P2;PMS_P1;PMS_P2;Temp;Humidity;BMP_temperature;BMP_pressure;BME280_temperature;BME280_humidity;BME280_pressure;Samples;Min_cycle;Max_cycle;Signal;HPM_P1;HPM_P2
2023/01/30 00:00:53;;;;;;;13.40;4.83;;;;;;;2.71;88.18;100798.97;5032754;28;20857;-66
2023/01/30 00:03:21;;;;;;;12.90;4.97;;;;;;;2.75;88.61;100781.41;5032808;28;20465;-66
2023/01/30 00:05:48;;;;;;;12.23;4.73;;;;;;;2.69;89.12;100768.97;5032752;28;20529;-66
2023/01/30 00:08:16;;;;;;;10.97;5.20;;;;;;;2.76;88.32;100767.78;5032578;28;20479;-65
2023/01/30 00:10:43;;;;;;;13.60;6.13;;;;;;;2.77;88.52;100764.03;5032722;28;20445;-65
2023/01/30 00:13:10;;;;;;;13.23;5.60;;;;;;;2.73;89.50;100751.41;5032541;28;20581;-65
2023/01/30 00:15:37;;;;;;;13.33;5.97;;;;;;;2.72;89.06;100745.25;5032709;28;20445;-66
2023/01/30 00:18:04;;;;;;;15.90;5.20;;;;;;;2.75;88.50;100749.31;5032497;28;20498;-65
2023/01/30 00:20:32;;;;;;;16.40;5.20;;;;;;;2.80;88.09;100746.69;5032221;28;21025;-65
2023/01/30 00:22:59;;;;;;;15.37;5.87;;;;;;;2.83;89.10;100740.03;5036368;28;20438;-66
2023/01/30 00:25:26;;;;;;;13.37;5.63;;;;;;;2.83;88.10;100723.97;5036224;28;20485;-66
2023/01/30 00:27:53;;;;;;;15.13;5.50;;;;;;;2.81;88.05;100710.06;5036004;28;20490;-65
2023/01/30 00:30:20;;;;;;;13.07;5.33;;;;;;;2.80;88.18;100703.91;5036203;28;20529;-66
2023/01/30 00:32:46;;;;;;;13.93;5.87;;;;;;;2.77;88.68;100689.16;5036175;28;20817;-66
2023/01/30 00:35:13;;;;;;;17.40;6.27;;;;;;;2.78;88.99;100679.25;5036077;28;20442;-66
2023/01/30 00:37:40;;;;;;;19.47;7.10;;;;;;;2.83;88.28;100670.50;5035543;28;20953;-66
2023/01/30 00:40:08;;;;;;;14.40;5.40;;;;;;;2.86;88.18;100645.94;5035829;28;20485;-66
2023/01/30 00:48:03;;;;;;;15.30;6.43;;;;;;;2.77;88.44;100616.94;5035941;28;20454;-67
2023/01/30 00:50:41;;;;;;;17.17;6.40;;;;;;;2.72;89.87;100624.91;5035833;28;20438;-66
2023/01/30 00:53:10;;;;;;;12.43;4.73;;;;;;;2.74;89.08;100613.94;5035852;28;20427;-66
2023/01/30 00:55:36;;;;;;;21.47;7.60;;;;;;;2.80;88.77;100622.84;5035384;28;20451;-66
2023/01/30 00:58:03;;;;;;;18.03;6.70;;;;;;;2.83;88.64;100607.09;5035628;28;20473;-66
2023/01/30 01:00:29;;;;;;;14.27;5.63;;;;;;;2.83;88.83;100606.28;5035617;28;20487;-66
2023/01/30 01:02:56;;;;;;;16.70;6.47;;;;;;;2.81;88.33;100608.44;5035643;28;20445;-65
2023/01/30 01:05:22;;;;;;;15.83;6.13;;;;;;;2.82;88.57;100604.69;5035576;28;20526;-65
2023/01/30 01:07:49;;;;;;;13.67;6.13;;;;;;;2.81;89.06;100597.72;5035538;28;20463;-66
2023/01/30 01:10:18;;;;;;;17.60;6.53;;;;;;;2.84;88.60;100591.88;5035560;28;20435;-66
2023/01/30 01:12:44;;;;;;;10.77;5.30;;;;;;;2.78;88.91;100558.91;5035259;28;20933;-66
2023/01/30 01:15:12;;;;;;;12.20;5.27;;;;;;;2.77;88.67;100535.91;5035478;28;20443;-66
2023/01/30 01:17:38;;;;;;;15.30;6.10;;;;;;;2.82;88.83;100540.50;5035254;28;20462;-65
2023/01/30 01:20:06;;;;;;;19.37;5.63;;;;;;;2.84;89.13;100543.75;5035185;28;20439;-66
2023/01/30 01:22:33;;;;;;;18.33;6.60;;;;;;;2.86;88.85;100537.06;5035296;28;20457;-66
2023/01/30 01:24:59;;;;;;;13.50;6.23;;;;;;;2.86;89.59;100525.56;5034871;28;20812;-66
2023/01/30 01:27:28;;;;;;;17.33;6.97;;;;;;;2.88;88.79;100524.25;5035120;28;20466;-66
2023/01/30 01:29:55;;;;;;;14.60;5.83;;;;;;;2.90;89.04;100529.34;5034842;28;20944;-67
2023/01/30 01:32:22;;;;;;;18.10;7.00;;;;;;;2.91;89.17;100520.25;5034750;28;20450;-66
2023/01/30 01:34:48;;;;;;;13.03;5.70;;;;;;;2.96;88.47;100531.00;5034738;28;20445;-66
2023/01/30 01:37:15;;;;;;;14.27;6.37;;;;;;;2.95;88.45;100545.47;5034856;28;20561;-65
2023/01/30 01:42:33;;;;;;;19.53;6.73;;;;;;;2.91;88.83;100552.38;5034939;28;20431;-65
2023/01/30 01:45:15;;;;;;;16.63;6.00;;;;;;;2.89;89.28;100547.28;5034610;28;20462;-66
2023/01/30 01:47:49;;;;;;;13.23;6.13;;;;;;;2.93;89.36;100539.56;5035169;28;20470;-66
2023/01/30 01:50:20;;;;;;;17.00;6.13;;;;;;;2.96;89.22;100533.69;5034943;28;20432;-65
2023/01/30 01:52:51;;;;;;;14.03;5.83;;;;;;;2.93;89.63;100524.31;5034813;28;20434;-66
2023/01/30 01:55:19;;;;;;;17.97;7.47;;;;;;;2.93;89.81;100510.13;5034374;28;20424;-66
2023/01/30 01:57:52;;;;;;;21.30;6.90;;;;;;;2.89;90.63;100501.00;5034477;28;20550;-66
2023/01/30 02:00:21;;;;;;;18.17;7.43;;;;;;;2.86;92.54;100494.28;5034225;28;20905;-67
2023/01/30 02:02:52;;;;;;;16.47;6.63;;;;;;;2.79;93.42;100474.97;5034479;28;20469;-66
2023/01/30 02:05:19;;;;;;;17.00;7.40;;;;;;;2.63;95.05;100467.81;5034497;28;20519;-66
2023/01/30 02:07:50;;;;;;;16.10;6.80;;;;;;;2.51;96.71;100447.38;5034277;28;20489;-66
2023/01/30 02:10:19;;;;;;;15.73;6.70;;;;;;;2.46;97.43;100449.19;5034032;28;20431;-66
2023/01/30 02:12:50;;;;;;;19.83;6.40;;;;;;;2.40;98.08;100442.19;5034302;28;20470;-66
2023/01/30 02:15:17;;;;;;;25.03;8.57;;;;;;;2.35;98.43;100434.13;5034195;28;20445;-66
2023/01/30 02:17:44;;;;;;;19.60;7.77;;;;;;;2.33;98.65;100431.66;5033856;28;20469;-66
2023/01/30 02:20:21;;;;;;;19.63;8.77;;;;;;;2.37;98.51;100416.75;5034101;28;20809;-66
2023/01/30 02:23:15;;;;;;;20.20;7.73;;;;;;;2.35;98.29;100412.72;5034090;28;20432;-66
2023/01/30 02:26:22;;;;;;;20.63;7.80;;;;;;;2.37;98.81;100410.59;5034038;28;20433;-66
2023/01/30 02:29:16;;;;;;;18.20;7.57;;;;;;;2.38;99.08;100396.19;5033569;28;20467;-65
2023/01/30 02:31:52;;;;;;;17.30;7.00;;;;;;;2.37;99.78;100402.59;5033855;28;20542;-66
2023/01/30 02:34:35;;;;;;;19.50;8.30;;;;;;;2.33;100.00;100402.28;5033906;28;20438;-66
2023/01/30 02:37:09;;;;;;;17.10;6.77;;;;;;;2.28;100.00;100391.53;5033419;28;20886;-68
2023/01/30 02:39:44;;;;;;;14.90;7.33;;;;;;;2.21;100.00;100370.38;5033514;28;20427;-66
2023/01/30 02:42:20;;;;;;;15.57;6.80;;;;;;;2.26;100.00;100374.97;5033273;28;20558;-66
2023/01/30 02:44:52;;;;;;;18.60;7.27;;;;;;;2.27;100.00;100358.66;5033621;28;20431;-66
2023/01/30 02:47:45;;;;;;;21.67;7.80;;;;;;;2.22;100.00;100347.13;5033718;28;20550;-66
2023/01/30 02:50:16;;;;;;;19.03;8.53;;;;;;;2.20;100.00;100350.03;5033787;28;20438;-66
2023/01/30 02:52:43;;;;;;;27.30;9.57;;;;;;;2.22;100.00;100342.59;5033502;28;20438;-66
2023/01/30 02:55:19;;;;;;;22.53;8.17;;;;;;;2.25;100.00;100344.72;5033527;28;20465;-66
2023/01/30 02:57:45;;;;;;;19.37;7.70;;;;;;;2.32;100.00;100351.75;5033215;28;20983;-67
2023/01/30 03:00:15;;;;;;;20.40;8.50;;;;;;;2.36;100.00;100332.28;5033399;28;20531;-66
2023/01/30 03:03:18;;;;;;;19.53;8.00;;;;;;;2.39;100.00;100333.63;5033280;28;21027;-66
2023/01/30 03:06:17;;;;;;;15.17;6.93;;;;;;;2.48;100.00;100316.91;5033498;28;20470;-66
2023/01/30 03:08:56;;;;;;;19.17;8.10;;;;;;;2.59;100.00;100315.13;5033221;28;20896;-66
2023/01/30 03:11:26;;;;;;;19.60;8.30;;;;;;;2.61;98.56;100321.03;5033423;28;20423;-66
2023/01/30 03:14:00;;;;;;;21.20;8.67;;;;;;;2.63;99.24;100310.88;5032961;28;20515;-66
2023/01/30 03:16:35;;;;;;;22.90;8.10;;;;;;;2.67;99.18;100301.28;5033087;28;20789;-66
2023/01/30 03:19:05;;;;;;;22.57;8.53;;;;;;;2.70;98.55;100284.75;5032808;28;20999;-66
2023/01/30 03:21:32;;;;;;;18.47;7.03;;;;;;;2.80;98.60;100291.22;5033291;28;20467;-66
2023/01/30 03:23:59;;;;;;;18.37;7.47;;;;;;;2.87;97.99;100302.50;5032899;28;20449;-66
2023/01/30 03:26:32;;;;;;;21.50;8.07;;;;;;;2.90;97.67;100288.63;5033094;28;20466;-66
2023/01/30 03:29:00;;;;;;;18.80;8.20;;;;;;;2.92;98.05;100278.44;5054963;22;20500;-77
2023/01/30 03:31:27;;;;;;;19.23;7.93;;;;;;;2.93;97.21;100280.09;5054109;28;20529;-77
2023/01/30 03:33:53;;;;;;;22.73;8.87;;;;;;;2.96;97.45;100277.69;5053395;28;20466;-77
2023/01/30 03:36:21;;;;;;;18.70;7.67;;;;;;;3.06;97.10;100268.94;5053910;28;20525;-77
2023/01/30 03:38:48;;;;;;;16.07;6.43;;;;;;;2.99;98.42;100257.66;5056120;22;20569;-68
2023/01/30 03:41:15;;;;;;;13.03;6.87;;;;;;;2.95;97.79;100256.53;5032643;28;20483;-68
2023/01/30 03:43:41;;;;;;;17.83;7.67;;;;;;;2.93;98.99;100254.13;5033016;28;20451;-68
2023/01/30 03:46:08;;;;;;;17.57;7.63;;;;;;;3.01;99.00;100259.00;5033047;28;20827;-68
2023/01/30 03:48:35;;;;;;;19.33;8.03;;;;;;;2.98;99.34;100251.50;5032634;28;20470;-68
2023/01/30 03:51:01;;;;;;;20.37;8.50;;;;;;;2.97;100.00;100249.09;5032604;28;20486;-68
2023/01/30 03:53:29;;;;;;;14.60;5.83;;;;;;;2.94;100.00;100246.91;5032941;28;20439;-68
2023/01/30 03:55:56;;;;;;;18.07;7.10;;;;;;;2.95;100.00;100229.78;5033197;28;20449;-68
2023/01/30 03:58:22;;;;;;;16.93;7.00;;;;;;;2.93;100.00;100231.94;5036800;28;20545;-68
2023/01/30 04:00:49;;;;;;;15.27;6.60;;;;;;;2.93;100.00;100214.00;5036755;28;20447;-68
2023/01/30 04:03:15;;;;;;;22.80;8.03;;;;;;;2.89;100.00;100212.91;5036781;28;20443;-68
2023/01/30 04:05:42;;;;;;;25.93;7.40;;;;;;;2.92;100.00;100212.41;5036446;28;20521;-68
2023/01/30 04:08:09;;;;;;;21.10;9.20;;;;;;;2.91;100.00;100208.09;5036567;28;20482;-68
2023/01/30 04:10:37;;;;;;;18.33;6.60;;;;;;;2.99;99.96;100185.41;5036639;28;20427;-68
2023/01/30 04:13:04;;;;;;;15.40;6.87;;;;;;;3.06;99.80;100199.38;5036671;28;20525;-68
2023/01/30 04:15:30;;;;;;;19.13;8.10;;;;;;;3.02;99.40;100187.56;5036602;28;20449;-68
2023/01/30 04:17:57;;;;;;;23.63;9.20;;;;;;;3.07;98.65;100192.94;5036137;28;20913;-68
2023/01/30 04:20:24;;;;;;;21.43;7.40;;;;;;;3.10;98.88;100183.56;5036481;28;20443;-68
2023/01/30 04:22:51;;;;;;;16.97;7.23;;;;;;;3.15;98.16;100180.94;5036404;28;20494;-69
2023/01/30 04:25:17;;;;;;;20.73;7.90;;;;;;;3.17;97.54;100176.94;5036315;28;20882;-68
2023/01/30 04:27:45;;;;;;;20.90;9.23;;;;;;;3.28;96.69;100172.44;5036385;28;20439;-69
2023/01/30 04:30:12;;;;;;;21.60;7.20;;;;;;;3.26;96.78;100172.69;5036322;28;20443;-69
2023/01/30 04:32:39;;;;;;;20.70;8.00;;;;;;;3.23;96.26;100164.34;5036304;28;20482;-69
2023/01/30 04:35:06;;;;;;;19.13;8.00;;;;;;;3.31;96.60;100184.47;5036140;28;20442;-68
2023/01/30 04:37:32;;;;;;;19.40;6.90;;;;;;;3.35;96.59;100164.94;5035974;28;20529;-68
2023/01/30 04:39:59;;;;;;;16.93;7.63;;;;;;;3.27;97.69;100179.63;5036214;28;20797;-68
2023/01/30 04:42:25;;;;;;;21.67;8.27;;;;;;;3.25;98.55;100165.72;5035926;28;20495;-68
2023/01/30 04:44:53;;;;;;;26.57;7.03;;;;;;;3.15;99.43;100157.66;5036046;28;20450;-68
2023/01/30 04:47:20;;;;;;;25.00;8.33;;;;;;;3.11;100.00;100158.44;5035986;28;20530;-68
2023/01/30 04:49:47;;;;;;;21.57;8.27;;;;;;;3.05;100.00;100154.94;5035882;28;20463;-69
2023/01/30 04:52:13;;;;;;;23.33;7.80;;;;;;;3.01;100.00;100143.97;5035874;28;20482;-68
2023/01/30 04:54:40;;;;;;;18.43;8.47;;;;;;;2.98;100.00;100163.22;5035808;28;20439;-68
2023/01/30 04:57:06;;;;;;;21.60;7.80;;;;;;;3.00;100.00;100149.56;5035501;28;20485;-67
2023/01/30 04:59:33;;;;;;;19.50;6.73;;;;;;;2.96;100.00;100143.13;5035700;28;20498;-68
2023/01/30 05:02:01;;;;;;;15.27;6.63;;;;;;;2.88;100.00;100140.94;5035293;28;20489;-68
2023/01/30 05:04:27;;;;;;;20.20;8.00;;;;;;;2.87;100.00;100131.31;5035676;28;20451;-68
2023/01/30 05:06:54;;;;;;;19.17;7.97;;;;;;;2.84;100.00;100137.22;5035146;28;20569;-68
2023/01/30 05:09:20;;;;;;;18.10;7.77;;;;;;;2.78;100.00;100128.34;5034577;28;20459;-68
2023/01/30 05:11:47;;;;;;;19.57;7.90;;;;;;;2.74;100.00;100133.41;5035508;28;20469;-68
2023/01/30 05:14:13;;;;;;;22.47;9.50;;;;;;;2.78;100.00;100113.09;5035491;28;20526;-68
2023/01/30 05:16:40;;;;;;;22.70;8.87;;;;;;;2.77;100.00;100124.84;5035091;28;21031;-68
2023/01/30 05:19:10;;;;;;;27.10;8.63;;;;;;;2.69;100.00;100120.00;5034985;28;20840;-68
2023/01/30 05:21:37;;;;;;;18.13;7.53;;;;;;;2.65;100.00;100118.91;5035356;28;20896;-68
2023/01/30 05:24:04;;;;;;;16.40;7.90;;;;;;;2.66;100.00;100117.06;5035329;28;20443;-68
2023/01/30 05:26:31;;;;;;;22.03;9.10;;;;;;;2.64;100.00;100095.91;5035286;28;20546;-69
2023/01/30 05:28:58;;;;;;;18.93;8.10;;;;;;;2.67;100.00;100110.66;5035070;28;20470;-69
2023/01/30 05:31:24;;;;;;;21.10;8.27;;;;;;;2.66;100.00;100109.84;5035145;28;20447;-69
2023/01/30 05:33:52;;;;;;;20.53;8.10;;;;;;;2.68;100.00;100104.22;5035101;28;20454;-69
2023/01/30 05:36:22;;;;;;;22.93;7.90;;;;;;;2.65;100.00;100092.19;5035104;28;20449;-69
2023/01/30 05:38:49;;;;;;;17.40;7.93;;;;;;;2.70;100.00;100081.53;5034523;28;21017;-69
2023/01/30 05:41:16;;;;;;;21.47;8.13;;;;;;;2.66;100.00;100085.00;5034934;28;20525;-68
2023/01/30 05:43:43;;;;;;;21.93;8.30;;;;;;;2.68;100.00;100074.81;5034926;28;20475;-68
2023/01/30 05:46:11;;;;;;;24.13;8.70;;;;;;;2.69;100.00;100060.38;5034871;28;20447;-68
2023/01/30 05:48:38;;;;;;;23.87;9.67;;;;;;;2.74;100.00;100058.53;5034719;28;20830;-68
2023/01/30 05:51:05;;;;;;;21.30;8.93;;;;;;;2.76;100.00;100045.72;5034808;28;20443;-68
2023/01/30 05:53:34;;;;;;;19.00;7.60;;;;;;;2.78;100.00;100032.88;5034866;28;20439;-68
2023/01/30 05:56:05;;;;;;;17.27;7.97;;;;;;;2.83;100.00;100034.75;5034624;28;20443;-68
2023/01/30 05:58:32;;;;;;;22.80;7.70;;;;;;;2.89;100.00;100032.91;5034606;28;20470;-68
2023/01/30 06:01:03;;;;;;;21.80;8.37;;;;;;;2.94;100.00;100038.28;5034565;28;20439;-69
2023/01/30 06:03:30;;;;;;;17.50;7.93;;;;;;;2.93;100.00;100039.34;5034432;28;20483;-68
2023/01/30 06:05:56;;;;;;;19.27;8.27;;;;;;;2.96;100.00;100042.28;5034453;28;20478;-68
2023/01/30 06:08:23;;;;;;;16.23;8.00;;;;;;;3.06;100.00;100041.53;5034063;28;20545;-68
2023/01/30 06:10:51;;;;;;;20.77;7.87;;;;;;;3.09;100.00;100040.16;5034035;28;20445;-68
2023/01/30 06:13:18;;;;;;;26.37;7.70;;;;;;;3.09;100.00;100045.53;5034424;28;20439;-68
2023/01/30 06:15:45;;;;;;;23.10;8.80;;;;;;;3.14;100.00;100032.94;5034361;28;20443;-68
2023/01/30 06:18:11;;;;;;;20.63;7.97;;;;;;;3.13;100.00;100028.66;5034183;28;20467;-68
2023/01/30 06:20:38;;;;;;;21.53;7.10;;;;;;;3.20;100.00;100023.88;5033549;28;20957;-68
2023/01/30 06:23:04;;;;;;;24.70;8.10;;;;;;;3.24;100.00;100035.66;5034132;28;20570;-68
2023/01/30 06:25:31;;;;;;;17.17;6.97;;;;;;;3.29;100.00;100030.31;5033813;28;20438;-68
2023/01/30 06:27:59;;;;;;;22.67;8.37;;;;;;;3.36;100.00;100029.22;5033646;28;21019;-68
2023/01/30 06:30:25;;;;;;;16.67;8.00;;;;;;;3.43;100.00;100037.81;5034120;28;20483;-70
2023/01/30 06:32:52;;;;;;;24.83;8.77;;;;;;;3.50;100.00;100041.03;5033722;28;20445;-69
2023/01/30 06:35:19;;;;;;;20.27;6.73;;;;;;;3.49;100.00;100034.06;5033959;28;20479;-69
2023/01/30 06:37:46;;;;;;;19.83;7.23;;;;;;;3.50;100.00;100041.84;5033452;28;20554;-69
2023/01/30 06:40:13;;;;;;;17.07;8.07;;;;;;;3.60;100.00;100043.72;5033825;28;20542;-68
2023/01/30 06:42:44;;;;;;;20.13;7.87;;;;;;;3.64;100.00;100041.31;5033725;28;20491;-69
2023/01/30 06:45:12;;;;;;;19.63;7.77;;;;;;;3.68;100.00;100027.13;5033673;28;20451;-69
2023/01/30 06:47:45;;;;;;;20.73;7.67;;;;;;;3.72;100.00;100033.53;5033705;28;20450;-68
2023/01/30 06:50:11;;;;;;;19.27;7.23;;;;;;;3.77;100.00;100028.16;5033689;28;20855;-68
2023/01/30 06:52:41;;;;;;;15.47;6.30;;;;;;;3.83;100.00;100030.84;5033635;28;20439;-68
2023/01/30 06:55:08;;;;;;;16.80;6.53;;;;;;;3.96;100.00;100025.72;5033314;28;20446;-68
2023/01/30 06:57:35;;;;;;;16.23;7.40;;;;;;;4.05;100.00;100020.63;5033185;28;20479;-68
2023/01/30 07:00:04;;;;;;;14.87;5.83;;;;;;;4.12;100.00;100012.28;5033489;28;20439;-68
2023/01/30 07:02:34;;;;;;;15.97;5.50;;;;;;;4.05;100.00;100016.06;5032968;28;20483;-69
2023/01/30 07:05:01;;;;;;;14.00;6.20;;;;;;;4.11;100.00;100013.38;5033372;28;20567;-68
2023/01/30 07:07:27;;;;;;;12.77;4.43;;;;;;;4.16;100.00;100007.97;5033403;28;20447;-68
2023/01/30 07:09:54;;;;;;;13.07;4.90;;;;;;;4.13;100.00;100000.50;5033364;28;20475;-68
2023/01/30 07:12:21;;;;;;;14.07;5.60;;;;;;;4.19;100.00;99994.06;5033283;28;20442;-68
2023/01/30 07:14:47;;;;;;;14.80;5.93;;;;;;;4.29;100.00;99996.69;5033010;28;20453;-67
2023/01/30 07:17:14;;;;;;;15.73;4.43;;;;;;;4.28;100.00;99995.09;5033253;28;20484;-68
2023/01/30 07:19:42;;;;;;;12.63;4.93;;;;;;;4.36;100.00;99999.09;5033162;28;20467;-69
2023/01/30 07:22:09;;;;;;;11.83;5.00;;;;;;;4.47;100.00;100003.31;5033153;28;20923;-69
2023/01/30 07:24:36;;;;;;;14.97;5.30;;;;;;;4.41;100.00;99993.69;5033213;28;20486;-69
2023/01/30 07:27:02;;;;;;;13.17;4.43;;;;;;;4.36;100.00;99993.72;5033156;28;20449;-69
2023/01/30 07:29:29;;;;;;;14.77;4.80;;;;;;;4.35;100.00;99992.13;5032763;28;20477;-69
2023/01/30 07:31:55;;;;;;;14.37;4.87;;;;;;;4.33;100.00;99999.63;5032091;28;20479;-70
2023/01/30 07:34:22;;;;;;;15.97;5.00;;;;;;;4.37;100.00;100000.69;5033062;28;20446;-69
2023/01/30 07:36:50;;;;;;;12.40;4.93;;;;;;;4.40;100.00;100010.88;5033045;28;20475;-70
2023/01/30 07:39:17;;;;;;;12.83;4.53;;;;;;;4.37;100.00;100008.72;5032707;28;20480;-69
2023/01/30 07:41:43;;;;;;;10.73;4.17;;;;;;;4.34;100.00;100017.31;5032726;28;20439;-70
2023/01/30 07:44:10;;;;;;;12.97;5.33;;;;;;;4.38;100.00;100007.66;5032911;28;20494;-70
2023/01/30 07:46:36;;;;;;;12.80;4.60;;;;;;;4.34;100.00;100015.47;5032705;28;20447;-70
2023/01/30 07:49:04;;;;;;;13.87;5.50;;;;;;;4.32;100.00;100014.91;5032909;28;20467;-70
2023/01/30 07:51:31;;;;;;;12.37;5.00;;;;;;;4.33;100.00;100018.38;5032657;28;20449;-70
2023/01/30 07:53:59;;;;;;;9.63;3.70;;;;;;;4.28;100.00;100017.34;5032612;28;20471;-70
2023/01/30 07:56:26;;;;;;;15.83;4.17;;;;;;;4.34;100.00;100020.00;5032613;28;20450;-70
2023/01/30 07:58:55;;;;;;;12.70;4.60;;;;;;;4.33;100.00;100016.50;5032848;28;20494;-70
2023/01/30 08:01:22;;;;;;;9.73;3.90;;;;;;;4.40;100.00;100025.06;5032837;28;20458;-70
2023/01/30 08:03:49;;;;;;;10.20;4.87;;;;;;;4.42;100.00;100022.13;5033101;28;20578;-70
2023/01/30 08:06:16;;;;;;;11.10;4.33;;;;;;;4.44;100.00;100014.63;5033009;28;20451;-70
2023/01/30 08:08:43;;;;;;;11.10;4.20;;;;;;;4.45;100.00;100026.94;5032809;28;20461;-71
2023/01/30 08:11:11;;;;;;;10.37;3.60;;;;;;;4.40;100.00;100014.34;5032703;28;20550;-70
2023/01/30 08:13:38;;;;;;;16.13;5.27;;;;;;;4.42;100.00;100006.81;5032527;28;20970;-70
2023/01/30 08:16:06;;;;;;;11.20;4.00;;;;;;;4.48;100.00;100011.09;5032749;28;20530;-70
2023/01/30 08:18:34;;;;;;;11.97;5.00;;;;;;;4.42;100.00;100008.69;5032354;28;21075;-70
2023/01/30 08:21:03;;;;;;;12.47;3.87;;;;;;;4.52;100.00;100003.31;5032292;28;20828;-70
2023/01/30 08:23:30;;;;;;;9.80;4.07;;;;;;;4.51;100.00;99999.81;5032239;28;20586;-70
2023/01/30 08:25:58;;;;;;;7.73;2.93;;;;;;;4.54;100.00;99993.09;5032297;28;20443;-70
2023/01/30 08:28:26;;;;;;;11.70;3.90;;;;;;;4.56;100.00;100001.69;5032184;28;20470;-70
2023/01/30 08:30:54;;;;;;;9.40;3.60;;;;;;;4.55;100.00;100008.91;5032562;28;20447;-70
2023/01/30 08:33:20;;;;;;;10.93;4.30;;;;;;;4.55;100.00;100010.78;5032572;28;20443;-70
2023/01/30 08:35:47;;;;;;;12.50;3.90;;;;;;;4.62;100.00;100021.25;5032195;28;20450;-71
2023/01/30 08:38:14;;;;;;;12.70;4.10;;;;;;;4.64;100.00;100014.50;5032116;28;21035;-70
2023/01/30 08:40:41;;;;;;;11.00;3.77;;;;;;;4.56;100.00;100004.38;5032108;28;20446;-70
2023/01/30 08:43:08;;;;;;;11.33;3.63;;;;;;;4.65;100.00;100013.44;5034521;28;20478;-71
2023/01/30 08:45:36;;;;;;;11.83;3.20;;;;;;;4.66;100.00;100015.06;5036035;28;20443;-70
2023/01/30 08:48:04;;;;;;;9.57;3.03;;;;;;;4.70;100.00;100016.09;5035916;28;20558;-70
2023/01/30 08:50:31;;;;;;;8.63;2.60;;;;;;;4.80;100.00;100010.69;5035938;28;20439;-70
2023/01/30 08:52:58;;;;;;;7.83;2.80;;;;;;;4.87;100.00;99998.81;5035907;28;20453;-71
2023/01/30 08:55:24;;;;;;;8.90;2.60;;;;;;;4.91;100.00;99997.19;5035547;28;20449;-70
2023/01/30 08:57:51;;;;;;;7.13;2.30;;;;;;;5.00;100.00;99998.22;5035725;28;20470;-71
2023/01/30 09:00:18;;;;;;;7.57;2.50;;;;;;;5.06;100.00;100010.53;5035742;28;20447;-70
2023/01/30 09:02:46;;;;;;;6.97;2.60;;;;;;;5.17;100.00;100011.25;5035293;28;20566;-71
2023/01/30 09:05:13;;;;;;;8.60;2.67;;;;;;;5.24;100.00;100023.28;5035690;28;20815;-71
2023/01/30 09:07:39;;;;;;;7.50;2.60;;;;;;;5.28;100.00;100018.16;5035298;28;20447;-71
2023/01/30 09:10:06;;;;;;;6.33;2.00;;;;;;;5.35;100.00;100028.56;5035650;28;20478;-70
2023/01/30 09:12:33;;;;;;;6.20;2.00;;;;;;;5.46;100.00;100027.44;5035537;28;20447;-70
2023/01/30 09:15:00;;;;;;;5.97;1.77;;;;;;;5.49;100.00;100024.16;5035163;28;20534;-71
2023/01/30 09:17:26;;;;;;;6.50;2.47;;;;;;;5.50;100.00;100029.28;5035149;28;20541;-70
2023/01/30 09:19:54;;;;;;;5.50;1.60;;;;;;;5.53;100.00;100033.28;5035359;28;20459;-70
2023/01/30 09:22:21;;;;;;;6.20;1.60;;;;;;;5.51;100.00;100024.69;5035377;28;20443;-70
2023/01/30 09:24:47;;;;;;;7.60;1.70;;;;;;;5.58;100.00;100017.13;5035276;28;20573;-70
2023/01/30 09:27:14;;;;;;;5.60;1.60;;;;;;;5.62;100.00;100022.72;5035297;28;20446;-70
2023/01/30 09:29:40;;;;;;;7.10;1.13;;;;;;;5.65;100.00;100025.66;5070090;22;20867;-71
2023/01/30 09:32:07;;;;;;;8.70;1.40;;;;;;;5.72;100.00;100034.19;5055373;28;20445;-71
2023/01/30 09:34:34;;;;;;;7.70;1.47;;;;;;;5.72;100.00;100028.03;5055250;28;20873;-69
2023/01/30 09:37:02;;;;;;;4.93;1.30;;;;;;;5.79;100.00;100023.91;5055190;28;20517;-69
2023/01/30 09:39:29;;;;;;;8.03;1.50;;;;;;;5.76;100.00;100034.44;5054754;28;20486;-69
2023/01/30 09:42:24;;;;;;;17.67;1.60;;;;;;;5.80;100.00;100032.81;5054718;28;20446;-71
2023/01/30 09:45:12;;;;;;;5.87;1.47;;;;;;;5.87;100.00;100024.38;5055066;28;20467;-70
2023/01/30 09:47:48;;;;;;;14.17;2.07;;;;;;;5.95;100.00;100027.28;5054763;28;20430;-70
2023/01/30 09:50:32;;;;;;;4.70;1.07;;;;;;;5.94;100.00;100023.00;5054612;28;20477;-71
2023/01/30 09:53:06;;;;;;;6.50;1.13;;;;;;;5.92;100.00;100029.75;5054822;28;20590;-71
2023/01/30 09:55:38;;;;;;;5.37;1.20;;;;;;;5.87;100.00;100029.78;5054234;28;20474;-71
2023/01/30 09:58:06;;;;;;;7.47;1.70;;;;;;;5.99;100.00;100027.53;5054370;28;20916;-71
2023/01/30 10:00:36;;;;;;;7.43;1.60;;;;;;;5.92;100.00;100032.44;5054204;28;20466;-73
2023/01/30 10:03:10;;;;;;;4.93;1.07;;;;;;;5.89;100.00;100022.22;5054325;28;20558;-74
2023/01/30 10:05:43;;;;;;;7.63;1.30;;;;;;;5.97;100.00;100018.94;5054644;28;20422;-70
2023/01/30 10:08:29;;;;;;;5.20;1.10;;;;;;;6.02;100.00;100018.88;5054721;28;20518;-73
2023/01/30 10:11:03;;;;;;;13.63;1.23;;;;;;;6.04;100.00;100014.03;5054667;28;20505;-70
2023/01/30 10:13:56;;;;;;;7.27;1.20;;;;;;;6.14;100.00;100019.31;5054506;28;20533;-69
2023/01/30 10:16:30;;;;;;;12.90;1.80;;;;;;;6.23;97.85;100022.97;5054554;28;20426;-72
2023/01/30 10:19:19;;;;;;;5.80;1.10;;;;;;;6.41;97.35;100029.47;5054340;28;20466;-72
2023/01/30 10:21:50;;;;;;;7.47;1.10;;;;;;;6.51;96.96;100029.38;5054073;28;20462;-72
2023/01/30 10:24:32;;;;;;;7.00;1.13;;;;;;;6.60;95.11;100026.88;5054327;28;20466;-72
2023/01/30 10:26:59;;;;;;;5.17;0.77;;;;;;;6.64;95.22;100021.69;5054145;28;20462;-70
2023/01/30 10:29:31;;;;;;;5.00;0.77;;;;;;;6.63;94.64;100020.09;5053759;28;21046;-72
2023/01/30 10:32:01;;;;;;;8.30;1.27;;;;;;;6.60;94.38;100015.28;5054162;28;20509;-73
2023/01/30 10:34:31;;;;;;;5.47;1.20;;;;;;;6.56;93.90;100025.84;5054081;28;20850;-72
2023/01/30 10:37:04;;;;;;;9.40;1.90;;;;;;;6.49;92.57;100010.03;5054442;28;20461;-73
2023/01/30 10:39:41;;;;;;;8.43;0.87;;;;;;;6.56;91.42;100005.09;5053731;28;20494;-71
2023/01/30 10:42:11;;;;;;;5.23;1.13;;;;;;;6.46;92.91;100010.63;5053899;28;20457;-72
2023/01/30 10:44:39;;;;;;;14.73;1.50;;;;;;;6.51;92.17;100012.44;5053910;28;20462;-73
2023/01/30 10:47:25;;;;;;;6.50;1.10;;;;;;;6.53;91.28;100010.25;5053984;28;20516;-72
2023/01/30 10:49:54;;;;;;;4.97;0.80;;;;;;;6.47;91.96;100011.41;5053800;28;20486;-73
2023/01/30 10:52:35;;;;;;;12.50;1.47;;;;;;;6.41;90.73;100007.16;5053930;28;20462;-73
2023/01/30 10:55:08;;;;;;;12.83;1.77;;;;;;;6.51;89.97;99999.00;5053830;28;20426;-73
2023/01/30 10:57:49;;;;;;;7.83;0.87;;;;;;;6.39;89.77;99999.41;5053718;28;20418;-72
2023/01/30 11:00:24;;;;;;;18.37;2.87;;;;;;;6.45;90.80;99992.06;5053653;28;20466;-72
2023/01/30 11:03:03;;;;;;;10.50;1.30;;;;;;;6.50;90.85;99987.41;5053715;28;20430;-72
2023/01/30 11:05:38;;;;;;;9.93;1.20;;;;;;;6.50;90.45;99983.91;5053506;28;20458;-73
2023/01/30 11:08:16;;;;;;;5.40;0.90;;;;;;;6.50;90.54;99981.22;5053692;28;20486;-74
2023/01/30 11:10:44;;;;;;;8.40;0.90;;;;;;;6.52;90.00;99974.47;5053508;28;20494;-73
2023/01/30 11:13:17;;;;;;;9.30;1.30;;;;;;;6.56;89.61;99974.72;5053630;28;20468;-72
2023/01/30 11:15:46;;;;;;;10.43;1.30;;;;;;;6.71;89.60;99962.94;5053476;28;20486;-72
2023/01/30 11:18:14;;;;;;;7.17;0.80;;;;;;;6.75;87.58;99969.34;5053194;28;20478;-73
2023/01/30 11:20:42;;;;;;;12.63;1.17;;;;;;;6.82;87.39;99965.19;5053505;28;20497;-73
2023/01/30 11:23:24;;;;;;;7.43;1.63;;;;;;;6.77;88.19;99948.31;5053345;28;20453;-72
2023/01/30 11:25:56;;;;;;;8.87;1.13;;;;;;;6.82;88.79;99942.88;5053149;28;20791;-74
2023/01/30 11:28:25;;;;;;;6.70;1.10;;;;;;;6.88;88.39;99954.34;5053543;28;20525;-74
2023/01/30 11:30:56;;;;;;;8.13;1.10;;;;;;;6.92;87.63;99950.00;5052687;28;20478;-73
2023/01/30 11:33:30;;;;;;;10.00;1.87;;;;;;;6.91;87.42;99949.19;5053524;28;20851;-72
2023/01/30 11:35:59;;;;;;;7.13;0.80;;;;;;;6.96;86.23;99932.16;5052985;28;20433;-73
2023/01/30 11:38:28;;;;;;;5.10;1.37;;;;;;;6.90;86.59;99936.81;5053043;28;20452;-73
2023/01/30 11:41:05;;;;;;;5.93;1.00;;;;;;;6.72;89.69;99943.00;5052983;28;20549;-73
2023/01/30 11:43:33;;;;;;;5.87;1.40;;;;;;;6.53;92.69;99951.88;5053119;28;20472;-72